sensor_id;sensor_type;location;lat;lon;timestamp;pressure;altitude;pressure_sealevel;temperature;humidity
59650;BME280;46162;57.568;25.814;2024-02-15T00:01:22;101670.66;;;-1.04;100.00
59650;BME280;46162;57.568;25.814;2024-02-15T00:03:51;101679.66;;;-1.09;100.00
59650;BME280;46162;57.568;25.814;2024-02-15T00:06:20;101681.38;;;-1.08;100.00
59650;BME280;46162;57.568;25.814;2024-02-15T00:08:48;101690.03;;;-1.02;100.00
59650;BME280;46162;57.568;25.814;2024-02-15T00:11:21;101692.13;;;-0.87;100.00
59650;BME280;46162;57.568;25.814;2024-02-15T00:13:50;101688.63;;;-0.88;100.00
59650;BME280;46162;57.568;25.814;2024-02-15T00:16:18;101694.34;;;-1.00;100.00
59650;BME280;46162;57.568;25.814;2024-02-15T00:18:47;101689.38;;;-1.09;100.00
59650;BME280;46162;57.568;25.814;2024-02-15T00:21:16;101694.50;;;-1.04;100.00
59650;BME280;46162;57.568;25.814;2024-02-15T00:23:45;101701.50;;;-1.02;100.00
59650;BME280;46162;57.568;25.814;2024-02-15T00:26:14;101694.47;;;-1.03;100.00
59650;BME280;46162;57.568;25.814;2024-02-15T00:28:44;101700.03;;;-1.11;100.00
59650;BME280;46162;57.568;25.814;2024-02-15T00:31:12;101704.28;;;-1.06;100.00
59650;BME280;46162;57.568;25.814;2024-02-15T00:33:41;101709.13;;;-0.93;100.00
59650;BME280;46162;57.568;25.814;2024-02-15T00:36:10;101713.31;;;-0.85;100.00
59650;BME280;46162;57.568;25.814;2024-02-15T00:38:39;101710.94;;;-0.93;100.00
59650;BME280;46162;57.568;25.814;2024-02-15T00:41:10;101711.81;;;-0.94;100.00
59650;BME280;46162;57.568;25.814;2024-02-15T00:43:38;101712.06;;;-1.00;100.00
59650;BME280;46162;57.568;25.814;2024-02-15T00:46:08;101719.56;;;-1.13;100.00
59650;BME280;46162;57.568;25.814;2024-02-15T00:48:37;101720.19;;;-1.06;100.00
59650;BME280;46162;57.568;25.814;2024-02-15T00:51:08;101724.78;;;-1.12;100.00
59650;BME280;46162;57.568;25.814;2024-02-15T00:53:37;101723.03;;;-1.11;100.00
59650;BME280;46162;57.568;25.814;2024-02-15T00:56:06;101722.22;;;-1.13;100.00
59650;BME280;46162;57.568;25.814;2024-02-15T00:58:34;101720.47;;;-1.14;100.00
59650;BME280;46162;57.568;25.814;2024-02-15T01:01:04;101726.28;;;-1.03;100.00
59650;BME280;46162;57.568;25.814;2024-02-15T01:03:34;101721.38;;;-1.15;100.00
59650;BME280;46162;57.568;25.814;2024-02-15T01:06:04;101734.28;;;-1.04;100.00
59650;BME280;46162;57.568;25.814;2024-02-15T01:08:33;101738.88;;;-1.10;100.00
59650;BME280;46162;57.568;25.814;2024-02-15T01:11:03;101732.66;;;-1.09;100.00
59650;BME280;46162;57.568;25.814;2024-02-15T01:13:33;101740.81;;;-1.15;100.00
59650;BME280;46162;57.568;25.814;2024-02-15T01:16:01;101743.56;;;-1.18;100.00
59650;BME280;46162;57.568;25.814;2024-02-15T01:18:30;101748.00;;;-1.18;100.00
59650;BME280;46162;57.568;25.814;2024-02-15T01:21:00;101746.41;;;-1.24;100.00
59650;BME280;46162;57.568;25.814;2024-02-15T01:23:29;101747.94;;;-1.17;100.00
59650;BME280;46162;57.568;25.814;2024-02-15T01:25:58;101744.16;;;-1.10;100.00
59650;BME280;46162;57.568;25.814;2024-02-15T01:28:28;101744.47;;;-0.92;100.00
59650;BME280;46162;57.568;25.814;2024-02-15T01:30:56;101749.88;;;-0.95;100.00
59650;BME280;46162;57.568;25.814;2024-02-15T01:33:25;101754.25;;;-0.94;100.00
59650;BME280;46162;57.568;25.814;2024-02-15T01:35:54;101754.75;;;-0.83;100.00
59650;BME280;46162;57.568;25.814;2024-02-15T01:38:25;101744.69;;;-0.73;100.00
59650;BME280;46162;57.568;25.814;2024-02-15T01:40:53;101748.78;;;-0.90;100.00
59650;BME280;46162;57.568;25.814;2024-02-15T01:43:22;101740.19;;;-0.96;100.00
59650;BME280;46162;57.568;25.814;2024-02-15T01:45:50;101744.81;;;-0.76;100.00
59650;BME280;46162;57.568;25.814;2024-02-15T01:48:19;101742.59;;;-0.63;100.00
59650;BME280;46162;57.568;25.814;2024-02-15T01:50:50;101740.38;;;-0.76;100.00
59650;BME280;46162;57.568;25.814;2024-02-15T01:53:19;101734.56;;;-0.87;100.00
59650;BME280;46162;57.568;25.814;2024-02-15T01:55:49;101731.72;;;-0.81;100.00
59650;BME280;46162;57.568;25.814;2024-02-15T01:58:19;101740.47;;;-0.79;100.00
59650;BME280;46162;57.568;25.814;2024-02-15T02:00:48;101727.31;;;-0.82;100.00
59650;BME280;46162;57.568;25.814;2024-02-15T02:03:17;101734.38;;;-0.81;100.00
59650;BME280;46162;57.568;25.814;2024-02-15T02:05:49;101729.44;;;-0.67;100.00
59650;BME280;46162;57.568;25.814;2024-02-15T02:08:18;101730.47;;;-0.71;100.00
59650;BME280;46162;57.568;25.814;2024-02-15T02:10:46;101728.41;;;-0.62;100.00
59650;BME280;46162;57.568;25.814;2024-02-15T02:13:16;101726.25;;;-0.51;100.00
59650;BME280;46162;57.568;25.814;2024-02-15T02:15:46;101716.66;;;-0.55;100.00
59650;BME280;46162;57.568;25.814;2024-02-15T02:18:14;101718.50;;;-0.57;100.00
59650;BME280;46162;57.568;25.814;2024-02-15T02:20:43;101712.03;;;-0.50;100.00
59650;BME280;46162;57.568;25.814;2024-02-15T02:23:14;101707.13;;;-0.61;100.00
59650;BME280;46162;57.568;25.814;2024-02-15T02:25:44;101706.97;;;-0.56;100.00
59650;BME280;46162;57.568;25.814;2024-02-15T02:28:16;101705.63;;;-0.68;100.00
59650;BME280;46162;57.568;25.814;2024-02-15T02:30:45;101709.28;;;-0.72;100.00
59650;BME280;46162;57.568;25.814;2024-02-15T02:33:14;101707.88;;;-0.57;100.00
59650;BME280;46162;57.568;25.814;2024-02-15T02:35:47;101706.97;;;-0.56;100.00
59650;BME280;46162;57.568;25.814;2024-02-15T02:38:16;101697.81;;;-0.73;100.00
59650;BME280;46162;57.568;25.814;2024-02-15T02:40:46;101700.16;;;-0.63;100.00
59650;BME280;46162;57.568;25.814;2024-02-15T02:43:14;101693.50;;;-0.75;100.00
59650;BME280;46162;57.568;25.814;2024-02-15T02:45:43;101702.13;;;-0.69;100.00
59650;BME280;46162;57.568;25.814;2024-02-15T02:48:12;101695.00;;;-0.68;100.00
59650;BME280;46162;57.568;25.814;2024-02-15T02:50:41;101698.75;;;-0.74;100.00
59650;BME280;46162;57.568;25.814;2024-02-15T02:53:10;101694.28;;;-0.72;100.00
59650;BME280;46162;57.568;25.814;2024-02-15T02:55:40;101704.09;;;-0.75;100.00
59650;BME280;46162;57.568;25.814;2024-02-15T02:58:11;101699.06;;;-0.83;100.00
59650;BME280;46162;57.568;25.814;2024-02-15T03:00:40;101705.31;;;-0.84;100.00
59650;BME280;46162;57.568;25.814;2024-02-15T03:03:09;101703.44;;;-0.82;100.00
59650;BME280;46162;57.568;25.814;2024-02-15T03:05:38;101708.31;;;-0.70;100.00
59650;BME280;46162;57.568;25.814;2024-02-15T03:08:08;101711.34;;;-0.55;100.00
59650;BME280;46162;57.568;25.814;2024-02-15T03:10:37;101704.31;;;-0.56;100.00
59650;BME280;46162;57.568;25.814;2024-02-15T03:13:05;101703.25;;;-0.76;100.00
59650;BME280;46162;57.568;25.814;2024-02-15T03:15:36;101704.06;;;-0.74;100.00
59650;BME280;46162;57.568;25.814;2024-02-15T03:18:05;101706.75;;;-0.75;100.00
59650;BME280;46162;57.568;25.814;2024-02-15T03:20:37;101701.75;;;-0.59;100.00
59650;BME280;46162;57.568;25.814;2024-02-15T03:23:05;101699.50;;;-0.70;100.00
59650;BME280;46162;57.568;25.814;2024-02-15T03:25:34;101700.28;;;-0.67;100.00
59650;BME280;46162;57.568;25.814;2024-02-15T03:28:05;101700.09;;;-0.62;100.00
59650;BME280;46162;57.568;25.814;2024-02-15T03:30:33;101696.31;;;-0.80;100.00
59650;BME280;46162;57.568;25.814;2024-02-15T03:33:04;101705.19;;;-0.81;100.00
59650;BME280;46162;57.568;25.814;2024-02-15T03:35:34;101704.97;;;-0.75;100.00
59650;BME280;46162;57.568;25.814;2024-02-15T03:38:03;101706.56;;;-0.69;100.00
59650;BME280;46162;57.568;25.814;2024-02-15T03:40:32;101698.97;;;-0.80;100.00
59650;BME280;46162;57.568;25.814;2024-02-15T03:43:00;101708.44;;;-0.73;100.00
59650;BME280;46162;57.568;25.814;2024-02-15T03:45:34;101706.38;;;-0.90;100.00
59650;BME280;46162;57.568;25.814;2024-02-15T03:48:04;101702.56;;;-0.81;100.00
59650;BME280;46162;57.568;25.814;2024-02-15T03:50:34;101708.13;;;-0.89;100.00
59650;BME280;46162;57.568;25.814;2024-02-15T03:53:03;101709.81;;;-0.86;100.00
59650;BME280;46162;57.568;25.814;2024-02-15T03:55:37;101714.28;;;-0.88;100.00
59650;BME280;46162;57.568;25.814;2024-02-15T03:58:05;101718.06;;;-0.95;100.00
59650;BME280;46162;57.568;25.814;2024-02-15T04:00:35;101713.50;;;-0.92;100.00
59650;BME280;46162;57.568;25.814;2024-02-15T04:03:06;101718.06;;;-0.95;100.00
59650;BME280;46162;57.568;25.814;2024-02-15T04:05:34;101721.72;;;-0.99;100.00
59650;BME280;46162;57.568;25.814;2024-02-15T04:08:04;101727.53;;;-0.88;100.00
59650;BME280;46162;57.568;25.814;2024-02-15T04:10:33;101726.53;;;-0.84;100.00
59650;BME280;46162;57.568;25.814;2024-02-15T04:13:02;101730.59;;;-0.74;100.00
59650;BME280;46162;57.568;25.814;2024-02-15T04:15:31;101733.53;;;-0.83;100.00
59650;BME280;46162;57.568;25.814;2024-02-15T04:18:00;101735.22;;;-0.80;100.00
59650;BME280;46162;57.568;25.814;2024-02-15T04:20:31;101733.31;;;-0.77;100.00
59650;BME280;46162;57.568;25.814;2024-02-15T04:23:00;101727.81;;;-0.96;100.00
59650;BME280;46162;57.568;25.814;2024-02-15T04:25:29;101734.91;;;-0.96;100.00
59650;BME280;46162;57.568;25.814;2024-02-15T04:27:58;101731.88;;;-0.85;100.00
59650;BME280;46162;57.568;25.814;2024-02-15T04:30:30;101737.56;;;-0.71;100.00
59650;BME280;46162;57.568;25.814;2024-02-15T04:32:59;101740.78;;;-0.88;100.00
59650;BME280;46162;57.568;25.814;2024-02-15T04:35:28;101736.25;;;-0.59;100.00
59650;BME280;46162;57.568;25.814;2024-02-15T04:37:59;101736.94;;;-0.79;100.00
59650;BME280;46162;57.568;25.814;2024-02-15T04:40:28;101734.28;;;-0.79;100.00
59650;BME280;46162;57.568;25.814;2024-02-15T04:42:57;101736.63;;;-0.70;100.00
59650;BME280;46162;57.568;25.814;2024-02-15T04:45:26;101726.97;;;-0.71;100.00
59650;BME280;46162;57.568;25.814;2024-02-15T04:47:54;101730.19;;;-0.88;100.00
59650;BME280;46162;57.568;25.814;2024-02-15T04:50:24;101733.84;;;-0.92;100.00
59650;BME280;46162;57.568;25.814;2024-02-15T04:52:53;101732.84;;;-0.88;100.00
59650;BME280;46162;57.568;25.814;2024-02-15T04:55:23;101731.97;;;-0.89;100.00
59650;BME280;46162;57.568;25.814;2024-02-15T04:57:55;101734.78;;;-0.93;100.00
59650;BME280;46162;57.568;25.814;2024-02-15T05:00:24;101733.84;;;-0.92;100.00
59650;BME280;46162;57.568;25.814;2024-02-15T05:02:54;101742.50;;;-0.87;100.00
59650;BME280;46162;57.568;25.814;2024-02-15T05:05:23;101734.47;;;-0.84;100.00
59650;BME280;46162;57.568;25.814;2024-02-15T05:07:54;101745.94;;;-0.83;100.00
59650;BME280;46162;57.568;25.814;2024-02-15T05:10:25;101750.88;;;-0.73;100.00
59650;BME280;46162;57.568;25.814;2024-02-15T05:12:53;101745.88;;;-0.82;100.00
59650;BME280;46162;57.568;25.814;2024-02-15T05:15:23;101746.81;;;-0.83;100.00
59650;BME280;46162;57.568;25.814;2024-02-15T05:17:53;101742.31;;;-0.81;100.00
59650;BME280;46162;57.568;25.814;2024-02-15T05:20:22;101744.03;;;-0.80;100.00
59650;BME280;46162;57.568;25.814;2024-02-15T05:22:52;101746.84;;;-0.84;100.00
59650;BME280;46162;57.568;25.814;2024-02-15T05:25:21;101755.47;;;-0.78;100.00
59650;BME280;46162;57.568;25.814;2024-02-15T05:27:55;101751.16;;;-0.82;100.00
59650;BME280;46162;57.568;25.814;2024-02-15T05:30:25;101752.63;;;-0.72;100.00
59650;BME280;46162;57.568;25.814;2024-02-15T05:32:54;101753.22;;;-0.90;100.00
59650;BME280;46162;57.568;25.814;2024-02-15T05:35:24;101758.97;;;-0.77;100.00
59650;BME280;46162;57.568;25.814;2024-02-15T05:37:54;101757.81;;;-0.95;100.00
59650;BME280;46162;57.568;25.814;2024-02-15T05:40:23;101763.34;;;-1.01;100.00
59650;BME280;46162;57.568;25.814;2024-02-15T05:42:57;101769.59;;;-1.04;100.00
59650;BME280;46162;57.568;25.814;2024-02-15T05:45:30;101765.25;;;-1.06;100.00
59650;BME280;46162;57.568;25.814;2024-02-15T05:48:05;101771.91;;;-0.93;100.00
59650;BME280;46162;57.568;25.814;2024-02-15T05:50:40;101770.34;;;-0.99;100.00
59650;BME280;46162;57.568;25.814;2024-02-15T05:53:09;101773.47;;;-0.88;100.00
59650;BME280;46162;57.568;25.814;2024-02-15T05:55:37;101783.09;;;-0.85;100.00
59650;BME280;46162;57.568;25.814;2024-02-15T05:58:10;101787.13;;;-0.73;100.00
59650;BME280;46162;57.568;25.814;2024-02-15T06:00:41;101787.69;;;-0.63;100.00
59650;BME280;46162;57.568;25.814;2024-02-15T06:03:11;101777.59;;;-0.79;100.00
59650;BME280;46162;57.568;25.814;2024-02-15T06:05:40;101773.91;;;-0.75;100.00
59650;BME280;46162;57.568;25.814;2024-02-15T06:08:09;101780.34;;;-0.82;100.00
59650;BME280;46162;57.568;25.814;2024-02-15T06:10:40;101772.84;;;-0.69;100.00
59650;BME280;46162;57.568;25.814;2024-02-15T06:13:10;101775.84;;;-0.80;100.00
59650;BME280;46162;57.568;25.814;2024-02-15T06:15:39;101781.00;;;-0.75;100.00
59650;BME280;46162;57.568;25.814;2024-02-15T06:18:07;101783.00;;;-0.82;100.00
59650;BME280;46162;57.568;25.814;2024-02-15T06:20:39;101777.81;;;-0.85;100.00
59650;BME280;46162;57.568;25.814;2024-02-15T06:23:08;101780.75;;;-0.94;100.00
59650;BME280;46162;57.568;25.814;2024-02-15T06:25:37;101786.06;;;-0.94;100.00
59650;BME280;46162;57.568;25.814;2024-02-15T06:28:06;101793.94;;;-0.91;100.00
59650;BME280;46162;57.568;25.814;2024-02-15T06:30:48;101790.31;;;-0.89;100.00
59650;BME280;46162;57.568;25.814;2024-02-15T06:33:34;101798.31;;;-0.90;100.00
59650;BME280;46162;57.568;25.814;2024-02-15T06:36:20;101799.22;;;-0.91;100.00
59650;BME280;46162;57.568;25.814;2024-02-15T06:39:06;101797.28;;;-0.86;100.00
59650;BME280;46162;57.568;25.814;2024-02-15T06:41:53;101797.06;;;-0.80;100.00
59650;BME280;46162;57.568;25.814;2024-02-15T06:44:22;101799.09;;;-0.87;100.00
59650;BME280;46162;57.568;25.814;2024-02-15T06:46:52;101799.28;;;-0.93;100.00
59650;BME280;46162;57.568;25.814;2024-02-15T06:49:24;101805.31;;;-0.89;100.00
59650;BME280;46162;57.568;25.814;2024-02-15T06:51:53;101807.78;;;-0.83;100.00
59650;BME280;46162;57.568;25.814;2024-02-15T06:54:22;101803.19;;;-0.78;100.00
59650;BME280;46162;57.568;25.814;2024-02-15T06:56:51;101803.31;;;-0.81;100.00
59650;BME280;46162;57.568;25.814;2024-02-15T06:59:21;101803.66;;;-0.92;100.00
59650;BME280;46162;57.568;25.814;2024-02-15T07:01:51;101814.25;;;-0.92;100.00
59650;BME280;46162;57.568;25.814;2024-02-15T07:04:21;101812.66;;;-0.97;100.00
59650;BME280;46162;57.568;25.814;2024-02-15T07:06:52;101812.78;;;-1.00;100.00
59650;BME280;46162;57.568;25.814;2024-02-15T07:09:22;101813.78;;;-1.04;100.00
59650;BME280;46162;57.568;25.814;2024-02-15T07:11:52;101819.06;;;-1.03;100.00
59650;BME280;46162;57.568;25.814;2024-02-15T07:14:20;101821.75;;;-1.04;100.00
59650;BME280;46162;57.568;25.814;2024-02-15T07:16:49;101834.91;;;-1.01;100.00
59650;BME280;46162;57.568;25.814;2024-02-15T07:19:20;101825.75;;;-0.91;100.00
59650;BME280;46162;57.568;25.814;2024-02-15T07:21:49;101830.13;;;-0.90;100.00
59650;BME280;46162;57.568;25.814;2024-02-15T07:24:18;101829.28;;;-0.92;100.00
59650;BME280;46162;57.568;25.814;2024-02-15T07:26:47;101834.41;;;-0.86;100.00
59650;BME280;46162;57.568;25.814;2024-02-15T07:29:19;101837.78;;;-0.81;100.00
59650;BME280;46162;57.568;25.814;2024-02-15T07:31:50;101840.03;;;-0.69;100.00
59650;BME280;46162;57.568;25.814;2024-02-15T07:34:20;101842.34;;;-0.59;100.00
59650;BME280;46162;57.568;25.814;2024-02-15T07:36:50;101834.00;;;-0.74;100.00
59650;BME280;46162;57.568;25.814;2024-02-15T07:39:19;101837.41;;;-0.70;100.00
59650;BME280;46162;57.568;25.814;2024-02-15T07:41:54;101829.06;;;-0.59;100.00
59650;BME280;46162;57.568;25.814;2024-02-15T07:44:24;101825.81;;;-0.68;100.00
59650;BME280;46162;57.568;25.814;2024-02-15T07:46:54;101827.91;;;-0.77;100.00
59650;BME280;46162;57.568;25.814;2024-02-15T07:49:25;101836.69;;;-0.75;100.00
59650;BME280;46162;57.568;25.814;2024-02-15T07:51:54;101831.25;;;-0.71;100.00
59650;BME280;46162;57.568;25.814;2024-02-15T07:54:23;101831.31;;;-0.47;100.00
59650;BME280;46162;57.568;25.814;2024-02-15T07:56:52;101830.72;;;-0.55;100.00
59650;BME280;46162;57.568;25.814;2024-02-15T07:59:21;101842.59;;;-0.40;100.00
59650;BME280;46162;57.568;25.814;2024-02-15T08:01:50;101830.69;;;-0.29;100.00
59650;BME280;46162;57.568;25.814;2024-02-15T08:04:19;101828.41;;;-0.39;100.00
59650;BME280;46162;57.568;25.814;2024-02-15T08:06:50;101823.84;;;-0.36;100.00
59650;BME280;46162;57.568;25.814;2024-02-15T08:09:21;101822.38;;;-0.45;100.00
59650;BME280;46162;57.568;25.814;2024-02-15T08:11:51;101825.28;;;-0.52;100.00
59650;BME280;46162;57.568;25.814;2024-02-15T08:14:20;101823.16;;;-0.41;100.00
59650;BME280;46162;57.568;25.814;2024-02-15T08:16:49;101816.63;;;-0.57;100.00
59650;BME280;46162;57.568;25.814;2024-02-15T08:19:17;101823.06;;;-0.65;100.00
59650;BME280;46162;57.568;25.814;2024-02-15T08:21:47;101827.31;;;-0.59;100.00
59650;BME280;46162;57.568;25.814;2024-02-15T08:24:19;101825.69;;;-0.38;100.00
59650;BME280;46162;57.568;25.814;2024-02-15T08:26:48;101818.56;;;-0.62;100.00
59650;BME280;46162;57.568;25.814;2024-02-15T08:29:17;101819.28;;;-0.57;100.00
59650;BME280;46162;57.568;25.814;2024-02-15T08:31:46;101812.16;;;-0.55;100.00
59650;BME280;46162;57.568;25.814;2024-02-15T08:34:16;101814.91;;;-0.58;100.00
59650;BME280;46162;57.568;25.814;2024-02-15T08:36:47;101813.78;;;-0.51;100.00
59650;BME280;46162;57.568;25.814;2024-02-15T08:39:16;101822.03;;;-0.34;100.00
59650;BME280;46162;57.568;25.814;2024-02-15T08:41:47;101821.78;;;-0.28;100.00
59650;BME280;46162;57.568;25.814;2024-02-15T08:44:20;101827.59;;;-0.16;100.00
59650;BME280;46162;57.568;25.814;2024-02-15T08:46:49;101822.47;;;-0.23;100.00
59650;BME280;46162;57.568;25.814;2024-02-15T08:49:19;101819.75;;;-0.19;100.00
59650;BME280;46162;57.568;25.814;2024-02-15T08:51:48;101824.66;;;-0.09;100.00
59650;BME280;46162;57.568;25.814;2024-02-15T08:54:18;101821.72;;;-0.01;100.00
59650;BME280;46162;57.568;25.814;2024-02-15T08:56:50;101815.94;;;-0.12;100.00
59650;BME280;46162;57.568;25.814;2024-02-15T08:59:19;101812.94;;;-0.03;100.00
59650;BME280;46162;57.568;25.814;2024-02-15T09:01:50;101812.13;;;-0.05;100.00
59650;BME280;46162;57.568;25.814;2024-02-15T09:04:19;101816.25;;;0.04;100.00
59650;BME280;46162;57.568;25.814;2024-02-15T09:06:48;101815.97;;;0.11;100.00
59650;BME280;46162;57.568;25.814;2024-02-15T09:09:17;101810.81;;;0.07;100.00
59650;BME280;46162;57.568;25.814;2024-02-15T09:11:46;101808.56;;;0.19;100.00
59650;BME280;46162;57.568;25.814;2024-02-15T09:14:16;101802.00;;;0.30;100.00
59650;BME280;46162;57.568;25.814;2024-02-15T09:16:45;101803.06;;;0.24;100.00
59650;BME280;46162;57.568;25.814;2024-02-15T09:19:14;101798.28;;;0.34;100.00
59650;BME280;46162;57.568;25.814;2024-02-15T09:21:43;101804.53;;;0.33;100.00
59650;BME280;46162;57.568;25.814;2024-02-15T09:24:12;101788.69;;;0.53;100.00
59650;BME280;46162;57.568;25.814;2024-02-15T09:26:43;101795.09;;;0.48;100.00
59650;BME280;46162;57.568;25.814;2024-02-15T09:29:12;101788.94;;;0.47;100.00
59650;BME280;46162;57.568;25.814;2024-02-15T09:31:43;101786.47;;;0.64;100.00
59650;BME280;46162;57.568;25.814;2024-02-15T09:34:11;101782.25;;;0.59;100.00
59650;BME280;46162;57.568;25.814;2024-02-15T09:36:41;101777.59;;;0.64;100.00
59650;BME280;46162;57.568;25.814;2024-02-15T09:39:10;101778.53;;;0.85;100.00
59650;BME280;46162;57.568;25.814;2024-02-15T09:41:41;101767.06;;;0.62;100.00
59650;BME280;46162;57.568;25.814;2024-02-15T09:44:10;101756.03;;;0.72;100.00
59650;BME280;46162;57.568;25.814;2024-02-15T09:46:44;101764.41;;;0.62;100.00
59650;BME280;46162;57.568;25.814;2024-02-15T09:49:14;101756.91;;;0.50;100.00
59650;BME280;46162;57.568;25.814;2024-02-15T09:51:43;101757.91;;;0.70;100.00
59650;BME280;46162;57.568;25.814;2024-02-15T09:54:14;101757.31;;;0.83;100.00
59650;BME280;46162;57.568;25.814;2024-02-15T09:56:50;101755.63;;;0.82;100.00
59650;BME280;46162;57.568;25.814;2024-02-15T09:59:19;101756.41;;;0.84;100.00
59650;BME280;46162;57.568;25.814;2024-02-15T10:01:51;101757.16;;;0.88;100.00
59650;BME280;46162;57.568;25.814;2024-02-15T10:04:21;101752.81;;;0.85;100.00
59650;BME280;46162;57.568;25.814;2024-02-15T10:06:50;101747.38;;;0.89;100.00
59650;BME280;46162;57.568;25.814;2024-02-15T10:09:28;101749.53;;;0.79;100.00
59650;BME280;46162;57.568;25.814;2024-02-15T10:11:59;101748.34;;;0.86;100.00
59650;BME280;46162;57.568;25.814;2024-02-15T10:14:29;101740.56;;;0.81;100.00
59650;BME280;46162;57.568;25.814;2024-02-15T10:17:07;101749.13;;;0.68;100.00
59650;BME280;46162;57.568;25.814;2024-02-15T10:19:38;101742.06;;;0.67;100.00
59650;BME280;46162;57.568;25.814;2024-02-15T10:22:10;101742.88;;;0.69;100.00
59650;BME280;46162;57.568;25.814;2024-02-15T10:24:41;101746.66;;;0.63;100.00
59650;BME280;46162;57.568;25.814;2024-02-15T10:27:10;101737.88;;;0.61;100.00
59650;BME280;46162;57.568;25.814;2024-02-15T10:29:39;101741.34;;;0.63;100.00
59650;BME280;46162;57.568;25.814;2024-02-15T10:32:10;101737.81;;;0.62;100.00
59650;BME280;46162;57.568;25.814;2024-02-15T10:34:43;101741.88;;;0.71;100.00
59650;BME280;46162;57.568;25.814;2024-02-15T10:37:14;101739.91;;;0.76;100.00
59650;BME280;46162;57.568;25.814;2024-02-15T10:39:44;101736.91;;;0.84;100.00
59650;BME280;46162;57.568;25.814;2024-02-15T10:42:15;101740.34;;;0.88;100.00
59650;BME280;46162;57.568;25.814;2024-02-15T10:44:46;101742.53;;;0.98;100.00
59650;BME280;46162;57.568;25.814;2024-02-15T10:47:18;101734.56;;;0.98;100.00
59650;BME280;46162;57.568;25.814;2024-02-15T10:49:47;101739.63;;;1.04;100.00
59650;BME280;46162;57.568;25.814;2024-02-15T10:52:18;101735.50;;;0.97;100.00
59650;BME280;46162;57.568;25.814;2024-02-15T10:54:52;101731.41;;;0.89;100.00
59650;BME280;46162;57.568;25.814;2024-02-15T10:57:26;101730.88;;;0.80;100.00
59650;BME280;46162;57.568;25.814;2024-02-15T10:59:56;101735.06;;;0.86;100.00
59650;BME280;46162;57.568;25.814;2024-02-15T11:02:32;101731.69;;;0.82;100.00
59650;BME280;46162;57.568;25.814;2024-02-15T11:05:04;101735.81;;;0.90;100.00
59650;BME280;46162;57.568;25.814;2024-02-15T11:07:38;101737.06;;;1.01;100.00
59650;BME280;46162;57.568;25.814;2024-02-15T11:10:08;101740.28;;;1.10;100.00
59650;BME280;46162;57.568;25.814;2024-02-15T11:12:38;101726.34;;;1.04;100.00
59650;BME280;46162;57.568;25.814;2024-02-15T11:15:09;101718.47;;;1.01;100.00
59650;BME280;46162;57.568;25.814;2024-02-15T11:17:47;101720.22;;;1.02;100.00
59650;BME280;46162;57.568;25.814;2024-02-15T11:20:46;101720.16;;;1.04;100.00
59650;BME280;46162;57.568;25.814;2024-02-15T11:23:29;101721.34;;;1.17;100.00
59650;BME280;46162;57.568;25.814;2024-02-15T11:26:04;101713.50;;;1.14;100.00
59650;BME280;46162;57.568;25.814;2024-02-15T11:28:38;101714.41;;;1.13;100.00
59650;BME280;46162;57.568;25.814;2024-02-15T11:31:11;101715.03;;;1.20;100.00
59650;BME280;46162;57.568;25.814;2024-02-15T11:37:07;101713.75;;;1.28;100.00
59650;BME280;46162;57.568;25.814;2024-02-15T11:39:42;101712.63;;;1.34;100.00
59650;BME280;46162;57.568;25.814;2024-02-15T11:42:27;101707.50;;;1.29;100.00
59650;BME280;46162;57.568;25.814;2024-02-15T11:45:03;101707.03;;;1.40;100.00
59650;BME280;46162;57.568;25.814;2024-02-15T11:47:36;101702.84;;;1.35;100.00
59650;BME280;46162;57.568;25.814;2024-02-15T11:50:08;101699.00;;;1.42;100.00
59650;BME280;46162;57.568;25.814;2024-02-15T11:52:41;101700.25;;;1.54;100.00
59650;BME280;46162;57.568;25.814;2024-02-15T11:55:10;101692.91;;;1.38;100.00
59650;BME280;46162;57.568;25.814;2024-02-15T11:57:40;101693.06;;;1.35;100.00
59650;BME280;46162;57.568;25.814;2024-02-15T12:00:28;101699.69;;;1.26;100.00
59650;BME280;46162;57.568;25.814;2024-02-15T12:03:14;101692.41;;;1.30;100.00
59650;BME280;46162;57.568;25.814;2024-02-15T12:06:30;101695.34;;;1.24;100.00
59650;BME280;46162;57.568;25.814;2024-02-15T12:09:19;101689.38;;;1.19;100.00
59650;BME280;46162;57.568;25.814;2024-02-15T12:12:16;101700.94;;;1.18;100.00
59650;BME280;46162;57.568;25.814;2024-02-15T12:15:03;101694.81;;;1.16;100.00
59650;BME280;46162;57.568;25.814;2024-02-15T12:17:49;101695.22;;;1.06;100.00
59650;BME280;46162;57.568;25.814;2024-02-15T12:20:36;101706.38;;;1.15;100.00
59650;BME280;46162;57.568;25.814;2024-02-15T12:23:04;101701.22;;;1.12;100.00
59650;BME280;46162;57.568;25.814;2024-02-15T12:25:37;101698.78;;;1.05;100.00
59650;BME280;46162;57.568;25.814;2024-02-15T12:28:06;101700.00;;;1.19;100.00
59650;BME280;46162;57.568;25.814;2024-02-15T12:30:35;101698.53;;;1.12;100.00
59650;BME280;46162;57.568;25.814;2024-02-15T12:33:09;101692.44;;;1.10;100.00
59650;BME280;46162;57.568;25.814;2024-02-15T12:35:38;101702.94;;;1.13;100.00
59650;BME280;46162;57.568;25.814;2024-02-15T12:38:07;101704.63;;;1.14;100.00
59650;BME280;46162;57.568;25.814;2024-02-15T12:40:39;101698.00;;;1.24;100.00
59650;BME280;46162;57.568;25.814;2024-02-15T12:43:12;101701.44;;;1.05;100.00
59650;BME280;46162;57.568;25.814;2024-02-15T12:45:41;101704.97;;;1.06;100.00
59650;BME280;46162;57.568;25.814;2024-02-15T12:48:10;101701.31;;;1.08;100.00
59650;BME280;46162;57.568;25.814;2024-02-15T12:50:39;101709.91;;;0.95;100.00
59650;BME280;46162;57.568;25.814;2024-02-15T12:53:08;101709.44;;;1.05;100.00
59650;BME280;46162;57.568;25.814;2024-02-15T12:55:39;101707.72;;;1.04;100.00